createdAt,value
2022-10-31T00:00:21.901Z,12
2022-10-31T00:02:26.002Z,11.9
2022-10-31T00:05:33.538Z,11.8
2022-10-31T00:07:37.580Z,11.8
2022-10-31T00:09:41.634Z,11.9
2022-10-31T00:11:45.715Z,11.9
2022-10-31T00:15:56.864Z,11.9
2022-10-31T00:18:01.227Z,12
2022-10-31T00:20:04.983Z,11.9
2022-10-31T00:22:09.060Z,11.9
2022-10-31T00:24:13.132Z,11.9
2022-10-31T00:26:17.163Z,11.8
2022-10-31T00:30:28.301Z,11.8
2022-10-31T00:32:32.384Z,11.9
2022-10-31T00:34:36.487Z,11.9
2022-10-31T00:36:40.556Z,11.9
2022-10-31T00:38:44.603Z,11.9
2022-10-31T00:40:48.680Z,11.9
2022-10-31T00:42:55.871Z,12
2022-10-31T00:44:59.816Z,12.1
2022-10-31T00:47:03.883Z,12.1
2022-10-31T00:49:07.926Z,12.1
2022-10-31T00:51:12.003Z,12.1
2022-10-31T00:53:16.063Z,12.1
2022-10-31T00:55:20.134Z,12.1
2022-10-31T00:57:27.217Z,12.1
2022-10-31T00:59:31.277Z,12.2
2022-10-31T01:01:35.547Z,12.3
2022-10-31T01:02:39.077Z,12.2
2022-10-31T01:06:47.021Z,12.1
2022-10-31T01:10:58.308Z,12
2022-10-31T01:15:06.305Z,11.9
2022-10-31T01:19:14.434Z,12.1
2022-10-31T01:21:18.501Z,12
2022-10-31T01:23:22.593Z,12
2022-10-31T01:25:29.648Z,12
2022-10-31T01:29:37.789Z,12
2022-10-31T01:33:45.912Z,11.9
2022-10-31T01:35:50.006Z,11.9
2022-10-31T01:40:01.124Z,11.8
2022-10-31T01:42:05.193Z,11.8
2022-10-31T01:44:09.248Z,11.8
2022-10-31T01:46:13.318Z,11.7
2022-10-31T01:48:17.403Z,11.7
2022-10-31T01:50:21.465Z,11.8
2022-10-31T01:52:25.508Z,11.7
2022-10-31T01:54:32.613Z,11.7
2022-10-31T01:56:36.656Z,11.6
2022-10-31T01:58:40.718Z,11.6
2022-10-31T01:59:44.261Z,11.6
2022-10-31T02:01:48.525Z,11.6
2022-10-31T02:03:52.358Z,11.6
2022-10-31T02:05:56.431Z,11.5
2022-10-31T02:08:03.501Z,11.4
2022-10-31T02:10:07.536Z,11.4
2022-10-31T02:12:11.603Z,11.3
2022-10-31T02:14:15.650Z,11.2
2022-10-31T02:16:19.716Z,11.2
2022-10-31T02:20:27.800Z,11.1
2022-10-31T02:22:34.861Z,11
2022-10-31T02:28:47.022Z,11.1
2022-10-31T02:30:51.076Z,11.1
2022-10-31T02:32:55.125Z,11
2022-10-31T02:34:59.157Z,10.9
2022-10-31T02:37:06.219Z,10.9
2022-10-31T02:39:10.270Z,10.8
2022-10-31T02:41:14.436Z,10.8
2022-10-31T02:43:18.360Z,10.8
2022-10-31T02:45:22.423Z,10.7
2022-10-31T02:47:26.452Z,10.7
2022-10-31T02:49:30.489Z,10.7
2022-10-31T02:51:37.538Z,10.6
2022-10-31T02:53:41.627Z,10.6
2022-10-31T02:55:45.639Z,10.6
2022-10-31T03:08:27.324Z,10.3
2022-10-31T03:12:35.354Z,10.2
2022-10-31T03:14:39.391Z,10.3
2022-10-31T03:16:43.427Z,10.1
2022-10-31T03:18:50.460Z,10
2022-10-31T03:20:54.499Z,10
2022-10-31T03:22:58.545Z,10
2022-10-31T03:27:06.591Z,10
2022-10-31T03:29:10.631Z,9.9
2022-10-31T03:31:14.646Z,10
2022-10-31T03:33:21.693Z,9.8
2022-10-31T03:41:37.772Z,9.7
2022-10-31T03:43:41.783Z,9.7
2022-10-31T03:45:45.812Z,9.7
2022-10-31T03:52:00.866Z,9.5
2022-10-31T03:53:04.398Z,9.5
2022-10-31T03:55:08.387Z,9.4
2022-10-31T03:57:12.390Z,9.5
2022-10-31T03:59:16.407Z,9.4
2022-10-31T04:01:23.610Z,9.4
2022-10-31T04:03:27.452Z,9.3
2022-10-31T04:05:31.441Z,9.4
2022-10-31T04:07:35.461Z,9.3
2022-10-31T04:09:39.450Z,9.3
2022-10-31T04:11:43.464Z,9.3
2022-10-31T04:13:47.467Z,9.3
2022-10-31T04:15:54.471Z,9.2
2022-10-31T04:20:02.493Z,9.1
2022-10-31T04:22:06.482Z,9.1
2022-10-31T04:30:25.495Z,9.4
2022-10-31T04:32:29.479Z,9.3
2022-10-31T04:34:33.484Z,9.4
2022-10-31T04:36:37.474Z,9.5
2022-10-31T04:38:41.475Z,9.5
2022-10-31T04:40:45.459Z,9.4
2022-10-31T04:42:49.464Z,9.4
2022-10-31T04:44:56.482Z,9.4
2022-10-31T04:47:00.503Z,9.4
2022-10-31T04:49:04.488Z,9.3
2022-10-31T04:50:07.994Z,9.3
2022-10-31T04:52:12.012Z,9.2
2022-10-31T04:56:20.012Z,9.2
2022-10-31T04:58:27.035Z,9.1
2022-10-31T05:00:31.045Z,9.1
2022-10-31T05:02:35.025Z,9.1
2022-10-31T05:04:39.028Z,9.2
2022-10-31T05:06:43.021Z,9.1
2022-10-31T05:08:47.020Z,9
2022-10-31T05:12:58.559Z,8.9
2022-10-31T05:15:02.089Z,8.9
2022-10-31T05:17:06.056Z,8.8
2022-10-31T05:19:10.056Z,8.7
2022-10-31T05:21:14.045Z,8.8
2022-10-31T05:23:18.028Z,8.8
2022-10-31T05:25:22.033Z,8.8
2022-10-31T05:27:29.055Z,8.8
2022-10-31T05:29:33.053Z,8.8
2022-10-31T05:31:38.623Z,8.9
2022-10-31T05:33:42.587Z,8.9
2022-10-31T05:35:46.583Z,9
2022-10-31T05:37:50.579Z,8.9
2022-10-31T05:39:54.571Z,8.9
2022-10-31T05:42:01.578Z,9
2022-10-31T05:44:05.568Z,8.9
2022-10-31T05:47:13.079Z,8.8
2022-10-31T05:49:17.053Z,8.8
2022-10-31T05:51:21.061Z,8.9
2022-10-31T05:53:25.045Z,8.9
2022-10-31T05:55:32.070Z,8.9
2022-10-31T05:57:36.056Z,9
2022-10-31T05:59:40.041Z,8.9
2022-10-31T06:01:44.068Z,8.9
2022-10-31T06:03:48.044Z,8.9
2022-10-31T06:05:55.047Z,8.9
2022-10-31T06:07:55.984Z,9
2022-10-31T06:10:03.020Z,8.9
2022-10-31T06:12:06.961Z,9.1
2022-10-31T06:14:10.964Z,9.1
2022-10-31T06:16:14.936Z,9.1
2022-10-31T06:18:18.940Z,9
2022-10-31T06:20:22.926Z,8.9
2022-10-31T06:22:26.898Z,8.9
2022-10-31T06:26:37.891Z,8.8
2022-10-31T06:28:41.885Z,8.8
2022-10-31T06:30:45.857Z,8.8
2022-10-31T06:32:49.850Z,8.8
2022-10-31T06:34:53.846Z,8.8
2022-10-31T06:39:04.803Z,8.7
2022-10-31T06:41:08.784Z,8.7
2022-10-31T06:45:30.891Z,8.7
2022-10-31T06:47:41.381Z,8.7
2022-10-31T06:49:38.860Z,8.7
2022-10-31T06:51:45.889Z,8.7
2022-10-31T06:53:49.921Z,8.7
2022-10-31T06:55:53.880Z,8.7
2022-10-31T06:58:01.877Z,8.6
2022-10-31T07:00:01.929Z,8.6
2022-10-31T07:02:05.966Z,8.7
2022-10-31T07:04:09.807Z,8.7
2022-10-31T07:06:16.789Z,8.8
2022-10-31T07:08:21.851Z,8.8
2022-10-31T07:10:25.823Z,8.9
2022-10-31T07:12:29.829Z,9
2022-10-31T07:18:41.754Z,9.2
2022-10-31T07:20:48.767Z,9.3
2022-10-31T07:22:52.743Z,9.3
2022-10-31T07:24:56.709Z,9.6
2022-10-31T07:31:08.687Z,10
2022-10-31T07:33:12.654Z,10.3
2022-10-31T07:37:23.654Z,10.2
2022-10-31T07:40:31.146Z,10.1
2022-10-31T07:42:35.131Z,10.1
2022-10-31T07:46:43.132Z,10.1
2022-10-31T07:50:54.158Z,10
2022-10-31T07:55:02.156Z,10.1
2022-10-31T07:57:06.150Z,10.2
2022-10-31T07:59:10.185Z,10.3
2022-10-31T08:01:14.187Z,10.4
2022-10-31T08:03:21.221Z,10.4
2022-10-31T08:05:25.229Z,10.4
2022-10-31T08:07:29.287Z,10.4
2022-10-31T08:09:33.271Z,10.6
2022-10-31T08:11:37.297Z,10.4
2022-10-31T08:13:41.298Z,10.6
2022-10-31T08:15:45.342Z,10.7
2022-10-31T08:17:52.372Z,10.9
2022-10-31T08:19:56.422Z,11
2022-10-31T08:22:00.439Z,11
2022-10-31T08:24:04.453Z,11
2022-10-31T08:26:08.494Z,11
2022-10-31T08:28:12.544Z,11
2022-10-31T08:30:16.568Z,11.1
2022-10-31T08:32:23.608Z,11.2
2022-10-31T08:34:27.645Z,11.2
2022-10-31T08:36:31.690Z,11.2
2022-10-31T08:37:35.217Z,11.1
2022-10-31T08:39:39.265Z,11.2
2022-10-31T08:41:43.295Z,11.3
2022-10-31T08:43:47.345Z,11.5
2022-10-31T08:45:54.390Z,11.5
2022-10-31T08:47:58.903Z,11.6
2022-10-31T08:50:02.500Z,11.7
2022-10-31T08:52:10.608Z,11.8
2022-10-31T08:54:10.586Z,11.9
2022-10-31T08:56:14.652Z,12.2
2022-10-31T08:58:18.690Z,12.4
2022-10-31T09:00:25.766Z,12.7
2022-10-31T09:02:29.799Z,12.7
2022-10-31T09:04:33.872Z,13.1
2022-10-31T09:12:50.111Z,13.3
2022-10-31T09:14:57.191Z,13.2
2022-10-31T09:17:01.274Z,13.2
2022-10-31T09:19:10.221Z,13.2
2022-10-31T09:21:09.417Z,13.3
2022-10-31T09:27:21.631Z,13.3
2022-10-31T09:29:28.731Z,13.3
2022-10-31T09:31:32.809Z,13.2
2022-10-31T09:34:40.425Z,13.3
2022-10-31T09:42:59.777Z,13.6
2022-10-31T09:49:12.092Z,14.1
2022-10-31T09:51:16.109Z,14
2022-10-31T09:53:20.208Z,13.9
2022-10-31T09:55:24.285Z,14
2022-10-31T09:57:31.406Z,14
2022-10-31T09:59:35.474Z,13.9
2022-10-31T10:01:39.671Z,14
2022-10-31T10:03:43.664Z,14
2022-10-31T10:05:47.774Z,14.1
2022-10-31T10:07:51.862Z,14.2
2022-10-31T10:09:55.981Z,14.2
2022-10-31T10:12:03.049Z,14.2
2022-10-31T10:14:07.158Z,14.3
2022-10-31T10:16:11.243Z,14.4
2022-10-31T10:18:15.340Z,14.7
2022-10-31T10:20:20.871Z,14.9
2022-10-31T10:22:23.544Z,15.1
2022-10-31T10:24:27.637Z,15.3
2022-10-31T10:26:34.770Z,15.1
2022-10-31T10:28:38.831Z,15.2
2022-10-31T10:30:42.938Z,15.2
2022-10-31T10:33:01.136Z,15.3
2022-10-31T10:35:05.249Z,15.3
2022-10-31T10:37:09.344Z,15.3
2022-10-31T10:39:16.486Z,15.3
2022-10-31T10:41:20.581Z,15.2
2022-10-31T10:43:24.678Z,15.3
2022-10-31T10:45:28.806Z,15.4
2022-10-31T10:47:32.940Z,15.5
2022-10-31T10:49:37.024Z,15.5
2022-10-31T10:51:58.250Z,15.5
2022-10-31T10:53:48.260Z,15.5
2022-10-31T10:57:56.499Z,15.4
2022-10-31T11:00:00.786Z,15.5
2022-10-31T11:02:04.719Z,15.4
2022-10-31T11:04:08.832Z,15.5
2022-10-31T11:06:12.952Z,15.5
2022-10-31T11:08:24.766Z,15.5
2022-10-31T11:10:24.366Z,15.5
2022-10-31T11:12:28.319Z,15.4
2022-10-31T11:14:32.424Z,15.4
2022-10-31T11:16:40.771Z,15.5
2022-10-31T11:18:40.659Z,15.5
2022-10-31T11:20:44.768Z,16
2022-10-31T11:22:51.893Z,16.1
2022-10-31T11:24:56.031Z,16.1
2022-10-31T11:27:00.134Z,16
2022-10-31T11:28:05.253Z,16
2022-10-31T11:30:09.330Z,16.1
2022-10-31T11:34:17.575Z,16.2
2022-10-31T11:36:24.716Z,16.3
2022-10-31T11:44:41.186Z,18.6
2022-10-31T11:48:49.425Z,19.5
2022-10-31T11:53:00.720Z,19.8
2022-10-31T11:55:04.828Z,19.3
2022-10-31T11:59:13.103Z,18.5
2022-10-31T12:03:21.361Z,17.9
2022-10-31T12:07:32.640Z,17.7
2022-10-31T12:09:36.769Z,17.5
2022-10-31T12:13:45.021Z,17.3
2022-10-31T12:15:49.172Z,17.3
2022-10-31T12:17:53.375Z,17.3
2022-10-31T12:20:00.485Z,17.5
2022-10-31T12:22:04.584Z,17.4
2022-10-31T12:25:12.297Z,17.4
2022-10-31T12:27:16.411Z,17.2
2022-10-31T12:29:20.551Z,17.1
2022-10-31T12:33:31.843Z,17.2
2022-10-31T12:35:36.054Z,17.3
2022-10-31T12:37:40.090Z,17.3
2022-10-31T12:39:44.341Z,17.3
2022-10-31T12:41:48.361Z,17.2
2022-10-31T12:43:52.528Z,17.3
2022-10-31T12:45:56.626Z,17.3
2022-10-31T12:48:03.786Z,17.3
2022-10-31T12:50:07.902Z,17.3
2022-10-31T12:52:12.040Z,17.4
2022-10-31T12:54:16.162Z,17.5
2022-10-31T12:56:20.290Z,17.4
2022-10-31T12:58:24.438Z,17.4
2022-10-31T13:00:30.502Z,17.4
2022-10-31T13:02:35.713Z,17.6
2022-10-31T13:04:39.850Z,17.6
2022-10-31T13:06:45.262Z,17.7
2022-10-31T13:08:54.730Z,17.6
2022-10-31T13:10:52.282Z,17.8
2022-10-31T13:17:07.650Z,17.5
2022-10-31T13:21:15.934Z,17.4
2022-10-31T13:22:19.500Z,17.4
2022-10-31T13:24:23.629Z,17.4
2022-10-31T13:26:27.741Z,17.3
2022-10-31T13:28:31.924Z,17.3
2022-10-31T13:30:39.025Z,17.2
2022-10-31T13:32:43.174Z,17.2
2022-10-31T13:34:47.288Z,17.2
2022-10-31T13:36:51.441Z,17.2
2022-10-31T13:38:55.567Z,17.2
2022-10-31T13:40:59.685Z,17.1
2022-10-31T13:43:04.105Z,17.1
2022-10-31T13:47:15.107Z,17
2022-10-31T13:49:19.255Z,16.9
2022-10-31T13:51:23.400Z,16.9
2022-10-31T13:53:27.534Z,16.8
2022-10-31T13:55:31.637Z,16.8
2022-10-31T13:57:35.832Z,16.8
2022-10-31T14:01:47.223Z,16.8
2022-10-31T14:05:55.339Z,16.9
2022-10-31T14:07:59.694Z,16.8
2022-10-31T14:12:07.742Z,16.8
2022-10-31T14:14:14.868Z,16.8
2022-10-31T14:16:19.000Z,16.8
2022-10-31T14:18:23.140Z,16.8
2022-10-31T14:20:47.106Z,16.9
2022-10-31T14:24:55.347Z,16.8
2022-10-31T14:29:06.650Z,16.8
2022-10-31T14:31:10.769Z,16.8
2022-10-31T14:33:14.914Z,16.8
2022-10-31T14:35:21.560Z,16.8
2022-10-31T14:37:23.168Z,16.8
2022-10-31T14:39:27.312Z,16.7
2022-10-31T14:41:34.443Z,16.7
2022-10-31T14:43:38.603Z,16.7
2022-10-31T14:45:42.736Z,16.7
2022-10-31T14:47:46.868Z,16.7
2022-10-31T14:49:51.002Z,16.7
2022-10-31T14:53:59.259Z,16.7
2022-10-31T14:56:07.186Z,16.6
2022-10-31T14:58:10.532Z,16.6
2022-10-31T15:00:14.687Z,16.6
2022-10-31T15:02:18.960Z,16.6
2022-10-31T15:04:24.759Z,16.5
2022-10-31T15:06:27.051Z,16.4
2022-10-31T15:08:31.182Z,16.4
2022-10-31T15:10:38.342Z,16.4
2022-10-31T15:12:42.488Z,16.4
2022-10-31T15:14:46.630Z,16.4
2022-10-31T15:15:52.492Z,16.3
2022-10-31T15:17:54.340Z,16.3
2022-10-31T15:19:58.462Z,16.3
2022-10-31T15:22:02.597Z,16.2
2022-10-31T15:24:09.724Z,16.2
2022-10-31T15:26:13.870Z,16.2
2022-10-31T15:28:17.976Z,16.1
2022-10-31T15:30:22.102Z,16.1
2022-10-31T15:32:26.236Z,16.1
2022-10-31T15:34:30.364Z,16
2022-10-31T15:36:38.287Z,16
2022-10-31T15:38:41.623Z,16
2022-10-31T15:40:45.753Z,16
2022-10-31T15:42:49.873Z,16
2022-10-31T15:44:53.997Z,16
2022-10-31T15:46:58.143Z,15.9
2022-10-31T15:49:02.268Z,15.9
2022-10-31T15:51:06.389Z,15.9
2022-10-31T15:53:13.519Z,15.9
2022-10-31T15:55:17.670Z,15.8
2022-10-31T15:57:21.771Z,15.8
2022-10-31T15:59:25.880Z,15.7
2022-10-31T16:03:34.134Z,15.6
2022-10-31T16:05:38.278Z,15.6
2022-10-31T16:07:45.414Z,15.5
2022-10-31T16:09:49.513Z,15.5
2022-10-31T16:11:53.637Z,15.5
2022-10-31T16:12:57.210Z,15.5
2022-10-31T16:15:01.322Z,15.5
2022-10-31T16:17:05.440Z,15.5
2022-10-31T16:19:09.561Z,15.4
2022-10-31T16:21:16.680Z,15.5
2022-10-31T16:23:20.805Z,15.4
2022-10-31T16:25:24.943Z,15.4
2022-10-31T16:27:29.063Z,15.4
2022-10-31T16:29:33.186Z,15.3
2022-10-31T16:31:37.311Z,15.4
2022-10-31T16:33:41.445Z,15.3
2022-10-31T16:37:52.685Z,15.3
2022-10-31T16:39:56.787Z,15.2
2022-10-31T16:42:00.950Z,15.2
2022-10-31T16:44:05.054Z,15.1
2022-10-31T16:48:13.282Z,15
2022-10-31T16:50:20.405Z,15.1
2022-10-31T16:52:24.530Z,15.1
2022-10-31T16:54:28.646Z,15.1
2022-10-31T16:56:32.771Z,15.1
2022-10-31T16:58:36.885Z,15.1
2022-10-31T17:00:41.007Z,15
2022-10-31T17:02:45.131Z,15
2022-10-31T17:04:55.712Z,15.1
2022-10-31T17:06:56.384Z,15
2022-10-31T17:09:00.505Z,15.1
2022-10-31T17:10:04.107Z,15
2022-10-31T17:12:08.197Z,15
2022-10-31T17:14:12.313Z,15
2022-10-31T17:16:16.437Z,15
2022-10-31T17:18:27.381Z,15
2022-10-31T17:20:27.692Z,15
2022-10-31T17:22:31.861Z,15
2022-10-31T17:24:35.953Z,15
2022-10-31T17:26:41.662Z,14.9
2022-10-31T17:28:45.720Z,15
2022-10-31T17:30:49.849Z,14.9
2022-10-31T17:32:56.958Z,14.8
2022-10-31T17:35:01.080Z,14.8
2022-10-31T17:37:05.319Z,14.8
2022-10-31T17:39:09.312Z,14.8
2022-10-31T17:41:13.441Z,14.8
2022-10-31T17:43:17.530Z,14.8
2022-10-31T17:47:28.787Z,14.7
2022-10-31T17:49:32.899Z,14.7
2022-10-31T17:51:36.994Z,14.6
2022-10-31T17:53:41.122Z,14.6
2022-10-31T17:55:45.230Z,14.5
2022-10-31T17:57:49.346Z,14.3
2022-10-31T17:59:53.448Z,14.2
2022-10-31T18:02:00.731Z,14
2022-10-31T18:04:04.686Z,13.9
2022-10-31T18:06:08.822Z,13.8
2022-10-31T18:10:35.129Z,13.7
2022-10-31T18:12:39.224Z,13.7
2022-10-31T18:14:48.567Z,13.8
2022-10-31T18:16:50.463Z,13.9
2022-10-31T18:18:54.537Z,13.9
2022-10-31T18:20:58.663Z,13.8
2022-10-31T18:23:02.752Z,13.9
2022-10-31T18:25:06.861Z,13.8
2022-10-31T18:27:11.141Z,13.6
2022-10-31T18:29:18.100Z,13.3
2022-10-31T18:31:22.151Z,13.3
2022-10-31T18:33:26.305Z,13.1
2022-10-31T18:35:30.335Z,13.1
2022-10-31T18:37:34.428Z,13
2022-10-31T18:39:38.515Z,13
2022-10-31T18:43:49.720Z,13.3
2022-10-31T18:45:58.007Z,13.3
2022-10-31T18:52:06.087Z,13.3
2022-10-31T18:56:14.251Z,13.3
2022-10-31T18:58:21.358Z,13.2
2022-10-31T19:00:25.467Z,13
2022-10-31T19:02:29.626Z,12.8
2022-10-31T19:03:33.076Z,12.7
2022-10-31T19:05:37.176Z,12.6
2022-10-31T19:07:41.256Z,12.6
2022-10-31T19:09:45.325Z,12.6
2022-10-31T19:11:52.420Z,12.5
2022-10-31T19:13:56.496Z,12.4
2022-10-31T19:16:00.575Z,12.5
2022-10-31T19:18:04.674Z,12.7
2022-10-31T19:22:12.822Z,12.6
2022-10-31T19:24:16.906Z,12.6
2022-10-31T19:26:23.986Z,12.6
2022-10-31T19:28:28.064Z,12.7
2022-10-31T19:30:32.133Z,13
2022-10-31T19:32:36.207Z,13
2022-10-31T19:34:40.286Z,13.1
2022-10-31T19:36:44.365Z,13
2022-10-31T19:38:48.437Z,13.1
2022-10-31T19:40:55.545Z,13.1
2022-10-31T19:42:59.607Z,13
2022-10-31T19:45:03.721Z,13
2022-10-31T19:47:07.752Z,13
2022-10-31T19:49:11.824Z,12.8
2022-10-31T19:51:15.919Z,12.7
2022-10-31T19:53:19.990Z,12.7
2022-10-31T19:55:27.074Z,12.7
2022-10-31T19:57:56.225Z,12.7
2022-10-31T19:59:39.153Z,12.6
2022-10-31T20:00:38.909Z,12.7
2022-10-31T20:02:42.871Z,12.7
2022-10-31T20:04:46.931Z,12.9
2022-10-31T20:06:51.014Z,13
2022-10-31T20:08:58.113Z,13
2022-10-31T20:13:06.265Z,13.1
2022-10-31T20:15:10.375Z,13.1
2022-10-31T20:17:14.438Z,13.2
2022-10-31T20:19:18.507Z,13.3
2022-10-31T20:21:22.612Z,13.2
2022-10-31T20:23:29.661Z,13.3
2022-10-31T20:25:33.761Z,13.4
2022-10-31T20:27:37.836Z,13.3
2022-10-31T20:29:41.894Z,13.3
2022-10-31T20:31:45.993Z,13.4
2022-10-31T20:33:50.061Z,13.4
2022-10-31T20:35:54.140Z,13.5
2022-10-31T20:38:01.470Z,13.5
2022-10-31T20:40:05.341Z,13.5
2022-10-31T20:42:09.406Z,13.5
2022-10-31T20:44:13.499Z,13.5
2022-10-31T20:46:17.577Z,13.5
2022-10-31T20:48:21.648Z,13.4
2022-10-31T20:50:25.741Z,13.5
2022-10-31T20:52:32.829Z,13.6
2022-10-31T20:56:40.992Z,13.6
2022-10-31T20:57:44.542Z,13.6
2022-10-31T20:59:48.619Z,13.5
2022-10-31T21:01:52.903Z,13.5
2022-10-31T21:03:56.804Z,13.5
2022-10-31T21:06:03.891Z,13.6
2022-10-31T21:08:07.978Z,13.6
2022-10-31T21:10:12.043Z,13.5
2022-10-31T21:12:16.135Z,13.5
2022-10-31T21:14:20.218Z,13.5
2022-10-31T21:16:24.330Z,13.4
2022-10-31T21:18:28.403Z,13.4
2022-10-31T21:20:35.491Z,13.4
2022-10-31T21:22:39.581Z,13.4
2022-10-31T21:24:43.667Z,13.4
2022-10-31T21:26:47.766Z,13.4
2022-10-31T21:28:51.844Z,13.5
2022-10-31T21:30:55.927Z,13.5
2022-10-31T21:33:00.026Z,13.5
2022-10-31T21:37:11.204Z,13.6
2022-10-31T21:39:15.275Z,13.6
2022-10-31T21:41:19.405Z,13.6
2022-10-31T21:43:23.472Z,13.6
2022-10-31T21:45:27.545Z,13.7
2022-10-31T21:47:31.646Z,13.6
2022-10-31T21:49:38.748Z,13.6
2022-10-31T21:51:42.818Z,13.6
2022-10-31T21:53:46.916Z,13.6
2022-10-31T21:56:05.374Z,13.5
2022-10-31T21:58:09.468Z,13.5
2022-10-31T22:00:13.559Z,13.5
2022-10-31T22:02:20.725Z,13.6
2022-10-31T22:04:24.736Z,13.6
2022-10-31T22:06:29.838Z,13.6
2022-10-31T22:08:33.928Z,13.6
2022-10-31T22:10:38.013Z,13.6
2022-10-31T22:12:42.086Z,13.5
2022-10-31T22:14:46.192Z,13.6
2022-10-31T22:16:53.285Z,13.5
2022-10-31T22:18:57.361Z,13.5
2022-10-31T22:21:01.452Z,13.5
2022-10-31T22:23:05.567Z,13.5
2022-10-31T22:25:09.645Z,13.5
2022-10-31T22:27:13.849Z,13.4
2022-10-31T22:29:17.810Z,13.4
2022-10-31T22:31:24.928Z,13.4
2022-10-31T22:33:29.025Z,13.4
2022-10-31T22:35:33.116Z,13.4
2022-10-31T22:37:37.201Z,13.5
2022-10-31T22:39:41.296Z,13.5
2022-10-31T22:41:45.373Z,13.5
2022-10-31T22:43:49.477Z,13.3
2022-10-31T22:45:56.555Z,13.3
2022-10-31T22:48:00.913Z,13.3
2022-10-31T22:50:04.781Z,13.4
2022-10-31T22:53:12.413Z,13.5
2022-10-31T22:55:16.522Z,13.5
2022-10-31T22:57:20.610Z,13.4
2022-10-31T22:59:27.692Z,13.4
2022-10-31T23:01:32.089Z,13.4
2022-10-31T23:03:35.894Z,13.4
2022-10-31T23:05:40.022Z,13.4
2022-10-31T23:07:44.103Z,13.4
2022-10-31T23:09:48.178Z,13.2
2022-10-31T23:11:52.271Z,13.1
2022-10-31T23:13:59.390Z,13.2
2022-10-31T23:16:03.471Z,13.2
2022-10-31T23:18:14.531Z,13.3
2022-10-31T23:20:11.689Z,13.6
2022-10-31T23:24:21.270Z,13.7
2022-10-31T23:28:32.460Z,13.8
2022-10-31T23:30:36.537Z,13.8
2022-10-31T23:32:40.610Z,13.8
2022-10-31T23:34:44.709Z,13.8
2022-10-31T23:36:48.808Z,13.9
2022-10-31T23:38:52.911Z,13.9
2022-10-31T23:40:57.014Z,13.9
2022-10-31T23:43:04.135Z,13.9
2022-10-31T23:45:08.236Z,13.9
2022-10-31T23:47:12.484Z,13.9
2022-10-31T23:48:15.853Z,14
2022-10-31T23:50:19.969Z,14
2022-10-31T23:52:24.115Z,14.1
2022-10-31T23:54:28.198Z,14
2022-10-31T23:56:35.308Z,14.1
2022-10-31T23:58:39.411Z,14
